KCNM/CNM METAR and TAF weather

Enter ICAO airport designator
Station Type Date Time Source
KCNM METAR 2019/08/19 07:53 UTC NOAA

KCNM 190753Z AUTO 13008KT 10SM CLR 29/13 A2992 RMK AO2 SLP061 T02940128 PNO $


Station Type Date Time Source
KCNM Decoded METAR 2019/08/19 07:53 UTC NOAA

Station name not available
Aug 19, 2019 - 03:53 AM EDT / 2019.08.19 0753 UTC
Wind: from the SE (130 degrees) at 9 MPH (8 KT):0
Visibility: 10 mile(s):0
Sky conditions: clear
Temperature: 84.9 F (29.4 C)
Dew Point: 55.0 F (12.8 C)
Relative Humidity: 36%
Pressure (altimeter): 29.92 in. Hg (1013 hPa)
ob: KCNM 190753Z AUTO 13008KT 10SM CLR 29/13 A2992 RMK AO2 SLP061 T02940128 PNO
cycle: 8

Station Type Date Time Source
KCNM TAF 2019/08/19 06:22 UTC NOAA

TAF KCNM 190520Z 1906/2006 15008KT P6SM BKN120

Example: see airport list